Time;durP1;ratioP1;P1;durP2;ratioP2;P2;SDS_P1;SDS_P2;PMS_P1;PMS_P2;Temp;Humidity;BMP_temperature;BMP_pressure;BME280_temperature;BME280_humidity;BME280_pressure;Samples;Min_cycle;Max_cycle;Signal;HPM_P1;HPM_P2
2023/08/25 00:01:57;;;;;;;;;;;;;;;24.89;54.14;100584.16;3970431;29;20560;-67
2023/08/25 00:03:59;;;;;;;;;;;;;;;24.88;54.25;100575.06;3969931;29;20024;-67
2023/08/25 00:06:01;;;;;;;;;;;;;;;24.88;54.53;100568.72;3970143;29;20020;-67
2023/08/25 00:08:06;;;;;;;;;;;;;;;24.86;54.79;100562.63;3960513;29;20504;-67
2023/08/25 00:10:08;;;;;;;;;;;;;;;24.85;55.05;100561.78;3968539;29;20020;-67
2023/08/25 00:12:11;;;;;;;;;;;;;;;24.83;55.17;100555.72;3969788;29;20389;-67
2023/08/25 00:14:13;;;;;;;;;;;;;;;24.81;55.23;100552.41;3970117;29;20353;-67
2023/08/25 00:16:15;;;;;;;;;;;;;;;24.79;55.60;100549.09;3969984;29;20389;-67
2023/08/25 00:18:17;;;;;;;;;;;;;;;24.78;55.58;100548.28;3970115;29;20052;-67
2023/08/25 00:20:19;;;;;;;;;;;;;;;24.77;55.42;100541.09;3954170;29;20032;-67
2023/08/25 00:22:21;;;;;;;;;;;;;;;24.76;55.62;100533.06;3970436;29;20027;-67
2023/08/25 00:24:25;;;;;;;;;;;;;;;24.76;55.71;100533.06;3969920;29;20016;-67
2023/08/25 00:26:27;;;;;;;;;;;;;;;24.74;55.76;100536.13;3969811;29;20025;-67
2023/08/25 00:28:29;;;;;;;;;;;;;;;24.71;55.87;100527.56;3970259;29;20024;-67
2023/08/25 00:30:30;;;;;;;;;;;;;;;24.69;55.55;100535.31;3969992;29;20020;-67
2023/08/25 00:32:33;;;;;;;;;;;;;;;24.67;56.06;100529.22;3959611;29;20040;-67
2023/08/25 00:34:35;;;;;;;;;;;;;;;24.67;55.61;100529.22;3969270;29;20047;-67
2023/08/25 00:36:36;;;;;;;;;;;;;;;24.64;55.81;100512.09;3970013;29;19980;-67
2023/08/25 00:38:38;;;;;;;;;;;;;;;24.64;55.64;100525.91;3969730;29;20024;-67
2023/08/25 00:40:42;;;;;;;;;;;;;;;24.64;55.63;100525.09;3970053;29;20018;-67
2023/08/25 00:42:43;;;;;;;;;;;;;;;24.64;55.61;100514.03;3969593;29;20011;-67
2023/08/25 00:44:46;;;;;;;;;;;;;;;24.64;55.51;100517.63;3970125;29;20046;-67
2023/08/25 00:46:47;;;;;;;;;;;;;;;24.63;55.79;100513.19;3969449;29;20036;-67
2023/08/25 00:48:49;;;;;;;;;;;;;;;24.64;55.98;100498.28;3969655;29;20020;-67
2023/08/25 00:50:53;;;;;;;;;;;;;;;24.64;55.65;100509.34;3959652;29;20028;-68
2023/08/25 00:52:58;;;;;;;;;;;;;;;24.63;55.93;100498.56;3969780;29;20389;-67
2023/08/25 00:55:06;;;;;;;;;;;;;;;24.63;55.89;100496.63;3969319;29;20036;-68
2023/08/25 00:57:11;;;;;;;;;;;;;;;24.61;55.56;100487.81;3959054;29;20392;-67
2023/08/25 00:59:17;;;;;;;;;;;;;;;24.60;55.59;100485.31;3974596;29;20412;-68
2023/08/25 01:01:19;;;;;;;;;;;;;;;24.59;55.44;100487.25;3968604;29;20024;-68
2023/08/25 01:03:21;;;;;;;;;;;;;;;24.59;55.68;100492.78;3969372;29;20020;-68
2023/08/25 01:05:26;;;;;;;;;;;;;;;24.59;55.78;100491.94;3969594;29;20036;-69
2023/08/25 01:07:28;;;;;;;;;;;;;;;24.58;55.45;100493.06;3968787;29;20028;-68
2023/08/25 01:09:30;;;;;;;;;;;;;;;24.57;55.70;100485.88;3959193;29;20012;-68
2023/08/25 01:11:36;;;;;;;;;;;;;;;24.57;55.96;100491.41;3969162;29;20012;-68
2023/08/25 01:13:48;;;;;;;;;;;;;;;24.58;55.73;100490.31;3969427;29;20448;-68
2023/08/25 01:15:50;;;;;;;;;;;;;;;24.58;55.86;100493.88;3968463;29;19993;-67
2023/08/25 01:18:00;;;;;;;;;;;;;;;24.57;55.66;100492.22;3969680;29;20032;-68
2023/08/25 01:20:07;;;;;;;;;;;;;;;24.57;56.10;100496.91;3974036;29;19933;-68
2023/08/25 01:22:14;;;;;;;;;;;;;;;24.56;55.89;100498.84;3967768;29;20024;-67
2023/08/25 01:24:19;;;;;;;;;;;;;;;24.57;55.85;100496.91;3970958;29;20385;-67
2023/08/25 01:26:25;;;;;;;;;;;;;;;24.55;55.88;100485.31;3968204;29;20033;-67
2023/08/25 01:28:28;;;;;;;;;;;;;;;24.55;55.87;100491.63;3969534;29;20365;-68
2023/08/25 01:30:34;;;;;;;;;;;;;;;24.55;55.99;100486.13;3966294;29;20015;-68
2023/08/25 01:32:37;;;;;;;;;;;;;;;24.54;56.29;100486.41;3966708;29;20407;-68
2023/08/25 01:34:39;;;;;;;;;;;;;;;24.54;56.35;100478.13;3969531;29;20023;-68
2023/08/25 01:36:43;;;;;;;;;;;;;;;24.55;56.18;100468.75;3969136;29;20020;-67
2023/08/25 01:38:50;;;;;;;;;;;;;;;24.55;56.09;100452.16;3968786;29;19973;-67
2023/08/25 01:40:53;;;;;;;;;;;;;;;24.52;56.16;100452.72;3967005;29;20019;-67
2023/08/25 01:42:56;;;;;;;;;;;;;;;24.51;56.38;100442.78;3968900;29;20024;-68
2023/08/25 01:44:58;;;;;;;;;;;;;;;24.49;56.32;100439.47;3968325;29;20456;-69
2023/08/25 01:47:01;;;;;;;;;;;;;;;24.49;56.33;100434.78;3973692;29;20036;-67
2023/08/25 01:49:03;;;;;;;;;;;;;;;24.49;56.72;100432.00;3974493;29;20032;-69
2023/08/25 01:51:11;;;;;;;;;;;;;;;24.50;56.45;100422.63;3968157;29;20440;-67
2023/08/25 01:53:13;;;;;;;;;;;;;;;24.50;56.57;100414.34;3968566;29;20024;-68
2023/08/25 01:55:15;;;;;;;;;;;;;;;24.49;56.45;100401.66;3968872;29;20868;-67
2023/08/25 01:57:16;;;;;;;;;;;;;;;24.49;56.89;100400.84;3967609;29;20016;-68
2023/08/25 01:59:19;;;;;;;;;;;;;;;24.48;56.81;100400.00;3957873;29;19987;-68
2023/08/25 02:01:21;;;;;;;;;;;;;;;24.47;56.86;100399.16;3952436;29;20561;-68
2023/08/25 02:03:24;;;;;;;;;;;;;;;24.49;56.97;100395.31;3973401;29;20598;-68
2023/08/25 02:05:26;;;;;;;;;;;;;;;24.48;56.76;100411.03;3966675;29;20023;-68
2023/08/25 02:07:28;;;;;;;;;;;;;;;24.46;56.79;100399.44;3968404;29;20028;-68
2023/08/25 02:09:30;;;;;;;;;;;;;;;24.44;57.24;100404.44;3952695;29;20029;-68
2023/08/25 02:11:32;;;;;;;;;;;;;;;24.42;57.00;100401.09;3968311;29;20380;-68
2023/08/25 02:13:34;;;;;;;;;;;;;;;24.40;57.35;100395.84;3967737;29;20032;-68
2023/08/25 02:15:37;;;;;;;;;;;;;;;24.41;57.30;100397.53;3973283;29;20032;-68
2023/08/25 02:17:40;;;;;;;;;;;;;;;24.41;57.35;100399.47;3973349;29;20714;-68
2023/08/25 02:19:42;;;;;;;;;;;;;;;24.42;57.44;100395.56;3958265;29;20377;-68
2023/08/25 02:21:44;;;;;;;;;;;;;;;24.41;57.40;100393.94;3968442;29;20492;-68
2023/08/25 02:23:45;;;;;;;;;;;;;;;24.39;57.11;100391.47;3968332;29;20024;-68
2023/08/25 02:25:48;;;;;;;;;;;;;;;24.38;57.18;100392.56;3968203;29;20453;-68
2023/08/25 02:27:50;;;;;;;;;;;;;;;24.37;57.38;100396.41;3968666;29;20027;-68
2023/08/25 02:29:52;;;;;;;;;;;;;;;24.36;57.59;100394.78;3968208;29;20031;-68
2023/08/25 02:31:55;;;;;;;;;;;;;;;24.37;57.67;100393.66;3968327;29;20086;-68
2023/08/25 02:33:57;;;;;;;;;;;;;;;24.36;57.34;100386.50;3957378;29;20072;-68
2023/08/25 02:35:59;;;;;;;;;;;;;;;24.36;57.75;100383.75;3968655;29;20032;-68
2023/08/25 02:38:04;;;;;;;;;;;;;;;24.35;57.37;100376.56;3968541;29;21801;-68
2023/08/25 02:40:07;;;;;;;;;;;;;;;24.36;57.42;100382.91;3973452;29;20026;-68
2023/08/25 02:42:09;;;;;;;;;;;;;;;24.35;57.44;100375.72;3981046;29;20019;-68
2023/08/25 02:44:11;;;;;;;;;;;;;;;24.35;57.67;100378.50;3973643;29;19929;-68
2023/08/25 02:46:14;;;;;;;;;;;;;;;24.35;57.73;100371.03;3982410;29;20015;-68
2023/08/25 02:48:17;;;;;;;;;;;;;;;24.34;57.81;100374.91;3973215;29;20399;-68
2023/08/25 02:50:22;;;;;;;;;;;;;;;24.33;57.82;100367.72;3966342;29;20036;-68
2023/08/25 02:52:24;;;;;;;;;;;;;;;24.32;57.81;100357.78;3968216;29;20017;-68
2023/08/25 02:54:26;;;;;;;;;;;;;;;24.33;57.74;100350.34;3958118;29;20024;-68
2023/08/25 02:56:28;;;;;;;;;;;;;;;24.32;58.04;100357.78;3974251;29;20031;-68
2023/08/25 02:58:30;;;;;;;;;;;;;;;24.31;57.95;100358.91;3968470;29;20039;-68
2023/08/25 03:00:34;;;;;;;;;;;;;;;24.31;57.76;100360.81;3966554;29;19937;-68
2023/08/25 03:02:35;;;;;;;;;;;;;;;24.31;58.10;100355.31;3958169;29;20032;-68
2023/08/25 03:04:39;;;;;;;;;;;;;;;24.32;58.13;100363.31;3951405;29;20584;-68
2023/08/25 03:06:41;;;;;;;;;;;;;;;24.33;58.29;100367.72;3952106;29;20025;-68
2023/08/25 03:08:45;;;;;;;;;;;;;;;24.32;57.91;100356.97;3951818;29;20037;-68
2023/08/25 03:10:49;;;;;;;;;;;;;;;24.32;58.10;100356.97;3966394;29;20025;-68
2023/08/25 03:12:51;;;;;;;;;;;;;;;24.29;58.29;100356.44;3966098;29;20028;-68
2023/08/25 03:14:53;;;;;;;;;;;;;;;24.29;58.08;100361.09;3968019;29;20369;-68
2023/08/25 03:16:55;;;;;;;;;;;;;;;24.26;58.87;100367.19;3970121;29;20015;-68
2023/08/25 03:18:57;;;;;;;;;;;;;;;24.22;58.47;100364.16;3966340;29;20487;-68
2023/08/25 03:21:04;;;;;;;;;;;;;;;24.20;58.60;100369.13;3958242;29;20033;-68
2023/08/25 03:23:05;;;;;;;;;;;;;;;24.18;58.63;100359.47;3967549;29;20029;-68
2023/08/25 03:25:08;;;;;;;;;;;;;;;24.16;58.84;100378.25;3966561;29;20020;-68
2023/08/25 03:27:13;;;;;;;;;;;;;;;24.14;58.78;100375.75;3965291;29;20512;-68
2023/08/25 03:29:15;;;;;;;;;;;;;;;24.10;59.21;100367.19;3966382;29;20105;-68
2023/08/25 03:31:17;;;;;;;;;;;;;;;24.07;59.36;100373.25;3972772;29;20025;-68
2023/08/25 03:33:19;;;;;;;;;;;;;;;24.04;59.27;100373.00;3973282;29;20024;-68
2023/08/25 03:35:20;;;;;;;;;;;;;;;24.01;59.39;100379.06;3968509;29;20037;-68
2023/08/25 03:37:23;;;;;;;;;;;;;;;23.98;59.81;100377.69;3957617;29;20450;-68
2023/08/25 03:39:26;;;;;;;;;;;;;;;23.95;59.85;100375.50;3957362;29;20020;-68
2023/08/25 03:41:28;;;;;;;;;;;;;;;23.96;59.90;100373.56;3967191;29;19980;-68
2023/08/25 03:43:30;;;;;;;;;;;;;;;23.95;60.11;100375.50;3966507;29;20382;-68
2023/08/25 03:45:32;;;;;;;;;;;;;;;23.95;60.01;100375.50;3972409;29;20033;-68
2023/08/25 03:47:34;;;;;;;;;;;;;;;23.97;60.06;100375.22;3966416;29;20037;-68
2023/08/25 03:49:36;;;;;;;;;;;;;;;23.97;59.73;100373.28;3965408;29;20488;-68
2023/08/25 03:51:38;;;;;;;;;;;;;;;23.97;59.96;100366.94;3967939;29;20020;-69
2023/08/25 03:53:42;;;;;;;;;;;;;;;23.97;60.08;100367.75;3966548;29;20040;-68
2023/08/25 03:55:45;;;;;;;;;;;;;;;23.96;60.00;100371.59;3972014;29;20028;-68
2023/08/25 03:57:48;;;;;;;;;;;;;;;23.95;60.13;100372.72;3967701;29;21928;-68
2023/08/25 03:59:50;;;;;;;;;;;;;;;23.92;60.34;100371.34;3987598;29;20015;-68
2023/08/25 04:01:53;;;;;;;;;;;;;;;23.91;60.39;100371.63;3988556;29;20408;-68
2023/08/25 04:03:54;;;;;;;;;;;;;;;23.89;60.30;100368.31;3972520;29;20001;-68
2023/08/25 04:05:56;;;;;;;;;;;;;;;23.88;60.59;100369.41;3970430;29;20032;-68
2023/08/25 04:07:58;;;;;;;;;;;;;;;23.85;60.63;100368.00;3960257;29;20033;-68
2023/08/25 04:10:03;;;;;;;;;;;;;;;23.83;60.57;100367.44;3969473;29;20461;-68
2023/08/25 04:12:05;;;;;;;;;;;;;;;23.81;60.86;100374.31;3959643;29;20037;-68
2023/08/25 04:14:07;;;;;;;;;;;;;;;23.78;60.96;100375.72;3970550;29;20020;-68
2023/08/25 04:16:11;;;;;;;;;;;;;;;23.76;61.05;100375.16;3969292;29;20031;-68
2023/08/25 04:18:13;;;;;;;;;;;;;;;23.74;60.81;100375.41;3975097;29;20029;-68
2023/08/25 04:20:16;;;;;;;;;;;;;;;23.72;60.88;100366.59;3974737;29;20027;-68
2023/08/25 04:22:18;;;;;;;;;;;;;;;23.70;61.18;100377.09;3969986;29;20460;-68
2023/08/25 04:24:20;;;;;;;;;;;;;;;23.70;61.00;100376.28;3968536;29;20036;-68
2023/08/25 04:26:24;;;;;;;;;;;;;;;23.70;61.09;100382.59;3969784;29;20046;-68
2023/08/25 04:28:26;;;;;;;;;;;;;;;23.69;61.21;100375.41;3970040;29;20036;-68
2023/08/25 04:30:28;;;;;;;;;;;;;;;23.69;61.43;100375.41;3974006;29;20457;-68
2023/08/25 04:32:34;;;;;;;;;;;;;;;23.68;61.51;100379.31;3967932;29;20074;-68
2023/08/25 04:34:35;;;;;;;;;;;;;;;23.66;61.43;100377.91;3974423;29;20027;-68
2023/08/25 04:36:39;;;;;;;;;;;;;;;23.65;61.55;100381.75;3970900;29;20352;-68
2023/08/25 04:38:41;;;;;;;;;;;;;;;23.64;61.59;100366.34;3969785;29;20020;-68
2023/08/25 04:40:43;;;;;;;;;;;;;;;23.64;61.75;100369.91;3974325;29;20481;-68
2023/08/25 04:42:47;;;;;;;;;;;;;;;23.65;61.60;100373.47;3968242;29;19929;-68
2023/08/25 04:44:49;;;;;;;;;;;;;;;23.64;61.60;100374.59;3959612;29;20022;-68
2023/08/25 04:46:52;;;;;;;;;;;;;;;23.62;62.15;100382.28;3959915;29;21428;-68
2023/08/25 04:48:54;;;;;;;;;;;;;;;23.58;62.05;100376.50;3967874;29;20032;-68
2023/08/25 04:50:56;;;;;;;;;;;;;;;23.56;62.14;100378.72;3973898;29;20025;-68
2023/08/25 04:53:02;;;;;;;;;;;;;;;23.55;62.34;100375.13;3969210;29;20589;-68
2023/08/25 04:55:05;;;;;;;;;;;;;;;23.56;62.14;100378.72;3969440;29;20024;-68
2023/08/25 04:57:07;;;;;;;;;;;;;;;23.54;62.32;100367.97;3974764;29;20027;-68
2023/08/25 04:59:10;;;;;;;;;;;;;;;23.55;62.38;100364.09;3970849;29;20016;-68
2023/08/25 05:01:11;;;;;;;;;;;;;;;23.54;62.48;100367.97;3959164;29;20020;-68
2023/08/25 05:03:13;;;;;;;;;;;;;;;23.56;62.32;100364.94;3974618;29;19929;-68
2023/08/25 05:05:17;;;;;;;;;;;;;;;23.55;62.09;100369.59;3967440;29;20020;-68
2023/08/25 05:07:20;;;;;;;;;;;;;;;23.57;62.13;100361.06;3970264;29;20366;-68
2023/08/25 05:09:22;;;;;;;;;;;;;;;23.57;61.96;100353.66;3983585;29;20464;-68
2023/08/25 05:11:27;;;;;;;;;;;;;;;23.60;61.97;100354.19;3974324;29;20031;-68
2023/08/25 05:13:31;;;;;;;;;;;;;;;23.60;61.71;100349.50;3982919;29;19959;-67
2023/08/25 05:15:35;;;;;;;;;;;;;;;23.58;61.87;100347.00;3987916;29;20531;-68
2023/08/25 05:17:38;;;;;;;;;;;;;;;23.59;62.03;100350.63;3982935;29;20645;-68
2023/08/25 05:19:40;;;;;;;;;;;;;;;23.58;62.05;100346.19;3985063;29;20016;-68
2023/08/25 05:21:42;;;;;;;;;;;;;;;23.58;62.01;100348.94;3988722;29;20504;-68
2023/08/25 05:23:46;;;;;;;;;;;;;;;23.58;62.15;100351.69;3969213;29;19933;-68
2023/08/25 05:25:50;;;;;;;;;;;;;;;23.58;62.22;100348.94;3974380;29;20028;-68
2023/08/25 05:27:52;;;;;;;;;;;;;;;23.57;62.16;100356.41;3968612;29;20011;-68
2023/08/25 05:29:55;;;;;;;;;;;;;;;23.57;61.99;100350.88;3967333;29;20028;-68
2023/08/25 05:32:01;;;;;;;;;;;;;;;23.58;61.95;100352.53;3957749;29;20520;-68
2023/08/25 05:34:21;;;;;;;;;;;;;;;23.56;62.32;100340.94;3970426;29;20932;-68
2023/08/25 05:36:28;;;;;;;;;;;;;;;23.56;62.36;100349.22;3969560;29;20021;-68
2023/08/25 05:38:31;;;;;;;;;;;;;;;23.56;62.53;100343.72;3965530;29;20024;-68
2023/08/25 05:40:33;;;;;;;;;;;;;;;23.56;62.23;100345.66;3967670;29;20032;-68
2023/08/25 05:42:37;;;;;;;;;;;;;;;23.55;62.56;100339.28;3953650;29;20021;-68
2023/08/25 05:44:40;;;;;;;;;;;;;;;23.55;62.44;100342.03;3973579;29;19936;-68
2023/08/25 05:46:43;;;;;;;;;;;;;;;23.54;62.54;100343.16;3959052;29;20020;-68
2023/08/25 05:48:48;;;;;;;;;;;;;;;23.55;62.36;100335.72;3967524;29;20028;-68
2023/08/25 05:50:50;;;;;;;;;;;;;;;23.56;62.34;100342.88;3958708;29;20004;-68
2023/08/25 05:52:53;;;;;;;;;;;;;;;23.55;63.00;100350.31;3969137;29;20032;-68
2023/08/25 05:54:55;;;;;;;;;;;;;;;23.56;62.90;100348.41;3974356;29;20033;-68
2023/08/25 05:56:58;;;;;;;;;;;;;;;23.53;62.75;100346.19;3968929;29;20031;-68
2023/08/25 05:59:01;;;;;;;;;;;;;;;23.53;62.92;100343.44;3967898;29;20047;-68
2023/08/25 06:01:04;;;;;;;;;;;;;;;23.52;63.01;100345.34;3970456;29;20027;-67
2023/08/25 06:03:08;;;;;;;;;;;;;;;23.53;62.77;100337.91;3970742;29;21495;-68
2023/08/25 06:05:11;;;;;;;;;;;;;;;23.53;63.26;100333.22;3955954;29;19977;-68
2023/08/25 06:07:15;;;;;;;;;;;;;;;23.53;62.93;100340.69;3970435;29;20378;-68
2023/08/25 06:09:17;;;;;;;;;;;;;;;23.52;62.82;100339.00;3970364;29;20032;-68
2023/08/25 06:11:19;;;;;;;;;;;;;;;23.51;62.45;100331.84;3969726;29;20028;-69
2023/08/25 06:13:22;;;;;;;;;;;;;;;23.53;62.50;100340.69;3970231;29;20036;-68
2023/08/25 06:15:26;;;;;;;;;;;;;;;23.53;62.47;100333.22;3969239;29;20452;-68
2023/08/25 06:17:27;;;;;;;;;;;;;;;23.52;62.49;100339.84;3969885;29;20043;-68
2023/08/25 06:19:30;;;;;;;;;;;;;;;23.51;62.60;100340.94;3969977;29;20024;-68
2023/08/25 06:21:33;;;;;;;;;;;;;;;23.54;62.38;100339.56;3970588;29;20012;-68
2023/08/25 06:23:35;;;;;;;;;;;;;;;23.56;62.55;100342.88;3969410;29;20020;-68
2023/08/25 06:25:37;;;;;;;;;;;;;;;23.57;62.53;100339.00;3966035;29;20021;-68
2023/08/25 06:27:40;;;;;;;;;;;;;;;23.58;62.42;100340.69;3966584;29;20032;-68
2023/08/25 06:29:42;;;;;;;;;;;;;;;23.58;62.08;100337.91;3967689;29;20028;-68
2023/08/25 06:31:44;;;;;;;;;;;;;;;23.56;62.46;100338.19;3967374;29;20501;-68
2023/08/25 06:33:46;;;;;;;;;;;;;;;23.56;62.38;100334.63;3968269;29;20020;-68
2023/08/25 06:35:48;;;;;;;;;;;;;;;23.56;62.28;100338.19;3967898;29;20036;-68
2023/08/25 06:37:51;;;;;;;;;;;;;;;23.57;62.35;100341.78;3968009;29;20449;-68
2023/08/25 06:39:53;;;;;;;;;;;;;;;23.58;62.32;100344.25;3969979;29;20029;-68
2023/08/25 06:41:56;;;;;;;;;;;;;;;23.59;62.51;100339.59;3968642;29;20025;-68
2023/08/25 06:43:59;;;;;;;;;;;;;;;23.59;62.33;100339.59;3965180;29;20028;-68
2023/08/25 06:46:01;;;;;;;;;;;;;;;23.60;62.32;100349.50;3971413;29;19969;-72
2023/08/25 06:48:04;;;;;;;;;;;;;;;23.61;62.14;100342.88;3968811;29;20020;-72
2023/08/25 06:50:06;;;;;;;;;;;;;;;23.62;62.25;100347.31;3969447;29;20020;-72
2023/08/25 06:52:08;;;;;;;;;;;;;;;23.63;62.31;100332.41;3970211;29;20012;-71
2023/08/25 06:54:12;;;;;;;;;;;;;;;23.66;62.13;100339.31;3969706;29;20024;-72
2023/08/25 06:56:15;;;;;;;;;;;;;;;23.69;62.44;100339.59;3968541;29;20028;-73
2023/08/25 06:58:17;;;;;;;;;;;;;;;23.73;62.12;100331.56;3969054;29;20035;-73
2023/08/25 07:00:20;;;;;;;;;;;;;;;23.77;61.99;100331.88;3968745;29;20028;-73
2023/08/25 07:02:22;;;;;;;;;;;;;;;23.83;61.58;100331.59;3968295;29;20057;-71
2023/08/25 07:04:25;;;;;;;;;;;;;;;23.86;61.49;100330.25;3969179;29;20016;-71
2023/08/25 07:06:27;;;;;;;;;;;;;;;23.91;61.15;100333.00;3968878;29;19929;-71
2023/08/25 07:08:28;;;;;;;;;;;;;;;23.95;61.31;100327.75;3968248;29;20052;-71
2023/08/25 07:10:31;;;;;;;;;;;;;;;23.99;61.07;100320.59;3968642;29;19937;-71
2023/08/25 07:12:33;;;;;;;;;;;;;;;24.01;61.07;100321.13;3968594;29;20146;-73
2023/08/25 07:14:36;;;;;;;;;;;;;;;24.02;61.11;100329.13;3968445;29;20073;-71
2023/08/25 07:16:38;;;;;;;;;;;;;;;24.07;60.50;100337.41;3968468;29;20024;-72
2023/08/25 07:18:40;;;;;;;;;;;;;;;24.08;60.75;100336.31;3966500;29;20028;-72
2023/08/25 07:20:42;;;;;;;;;;;;;;;24.11;60.56;100346.78;3968549;29;20016;-72
2023/08/25 07:22:44;;;;;;;;;;;;;;;24.16;60.36;100336.84;3968817;29;20028;-73
2023/08/25 07:24:47;;;;;;;;;;;;;;;24.20;60.24;100338.78;3968924;29;20020;-72
2023/08/25 07:26:52;;;;;;;;;;;;;;;24.22;60.35;100333.81;3968221;29;20410;-71
2023/08/25 07:28:56;;;;;;;;;;;;;;;24.25;59.98;100337.94;3968769;29;20020;-71
2023/08/25 07:30:59;;;;;;;;;;;;;;;24.28;60.29;100337.41;3971936;29;19933;-71
2023/08/25 07:33:02;;;;;;;;;;;;;;;24.31;59.84;100339.59;3966325;29;19965;-72
2023/08/25 07:35:05;;;;;;;;;;;;;;;24.33;59.90;100334.63;3969664;29;20372;-72
2023/08/25 07:37:07;;;;;;;;;;;;;;;24.38;59.95;100337.34;3970006;29;20035;-72
2023/08/25 07:39:09;;;;;;;;;;;;;;;24.42;60.02;100338.47;3972295;29;19965;-72
2023/08/25 07:41:11;;;;;;;;;;;;;;;24.44;59.78;100344.53;3971384;29;19967;-72
2023/08/25 07:43:15;;;;;;;;;;;;;;;24.47;59.88;100349.47;3971666;29;19993;-72
2023/08/25 07:45:18;;;;;;;;;;;;;;;24.50;59.83;100356.38;3971295;29;20028;-72
2023/08/25 07:47:20;;;;;;;;;;;;;;;24.53;59.56;100357.75;3970715;29;19934;-72
2023/08/25 07:49:22;;;;;;;;;;;;;;;24.56;59.48;100362.72;3971062;29;20060;-71
2023/08/25 07:51:24;;;;;;;;;;;;;;;24.59;59.66;100364.94;3959672;29;19929;-72
2023/08/25 07:53:29;;;;;;;;;;;;;;;24.61;59.50;100365.50;3971968;29;20020;-72
2023/08/25 07:55:32;;;;;;;;;;;;;;;24.64;59.28;100360.25;3971885;29;20024;-72
2023/08/25 07:57:34;;;;;;;;;;;;;;;24.66;59.02;100362.72;3960740;29;20036;-71
2023/08/25 07:59:37;;;;;;;;;;;;;;;24.71;58.97;100365.47;3972270;29;19992;-72
2023/08/25 08:01:40;;;;;;;;;;;;;;;24.73;59.10;100363.25;3971182;29;20024;-72
2023/08/25 08:03:43;;;;;;;;;;;;;;;24.76;59.06;100359.91;3971274;29;20056;-72
2023/08/25 08:05:48;;;;;;;;;;;;;;;24.78;59.09;100357.72;3970843;29;20036;-72
2023/08/25 08:07:50;;;;;;;;;;;;;;;24.81;58.56;100353.53;3971315;29;19939;-72
2023/08/25 08:09:52;;;;;;;;;;;;;;;24.85;58.91;100354.66;3970956;29;20354;-71
2023/08/25 08:11:59;;;;;;;;;;;;;;;24.87;58.74;100357.94;3970683;29;20544;-72
2023/08/25 08:14:01;;;;;;;;;;;;;;;24.89;58.74;100365.94;3970620;29;20016;-71
2023/08/25 08:16:07;;;;;;;;;;;;;;;24.93;58.57;100378.91;3975042;29;19936;-72
2023/08/25 08:18:09;;;;;;;;;;;;;;;24.96;58.59;100372.00;3968649;29;20366;-72
2023/08/25 08:20:13;;;;;;;;;;;;;;;24.99;58.33;100379.72;3969534;29;20044;-71
2023/08/25 08:22:14;;;;;;;;;;;;;;;25.03;58.17;100375.28;3970053;29;20032;-72
2023/08/25 08:24:16;;;;;;;;;;;;;;;25.05;57.89;100367.56;3970813;29;20029;-72
2023/08/25 08:26:19;;;;;;;;;;;;;;;25.09;57.81;100367.81;3968913;29;20016;-72
2023/08/25 08:28:21;;;;;;;;;;;;;;;25.11;58.00;100373.88;3958759;29;19929;-71
2023/08/25 08:30:23;;;;;;;;;;;;;;;25.14;57.64;100378.81;3969047;29;20020;-71
2023/08/25 08:32:26;;;;;;;;;;;;;;;25.16;57.95;100380.22;3969133;29;20027;-71
2023/08/25 08:34:27;;;;;;;;;;;;;;;25.18;57.45;100379.94;3970348;29;20023;-72
2023/08/25 08:36:29;;;;;;;;;;;;;;;25.22;57.45;100388.47;3969272;29;20457;-71
2023/08/25 08:38:31;;;;;;;;;;;;;;;25.25;57.34;100379.59;3970234;29;20445;-71
2023/08/25 08:40:33;;;;;;;;;;;;;;;25.26;57.51;100375.75;3970393;29;20374;-71
2023/08/25 08:42:36;;;;;;;;;;;;;;;25.29;57.21;100377.97;3968919;29;20402;-71
2023/08/25 08:44:39;;;;;;;;;;;;;;;25.32;57.22;100383.75;3970837;29;20032;-71
2023/08/25 08:46:41;;;;;;;;;;;;;;;25.33;57.34;100388.16;3969914;29;20032;-71
2023/08/25 08:48:44;;;;;;;;;;;;;;;25.36;57.40;100390.38;3968381;29;20020;-71
2023/08/25 08:50:47;;;;;;;;;;;;;;;25.40;56.87;100395.31;3969579;29;20033;-72
2023/08/25 08:52:49;;;;;;;;;;;;;;;25.40;56.76;100384.28;3969677;29;20157;-71
2023/08/25 08:54:51;;;;;;;;;;;;;;;25.44;56.74;100383.41;3971274;29;20016;-71
2023/08/25 08:56:53;;;;;;;;;;;;;;;25.47;57.05;100384.75;3969135;29;20020;-72
2023/08/25 08:58:56;;;;;;;;;;;;;;;25.50;56.79;100384.19;3970642;29;20048;-71
2023/08/25 09:00:58;;;;;;;;;;;;;;;25.51;56.60;100381.16;3969926;29;20424;-71
2023/08/25 09:03:01;;;;;;;;;;;;;;;25.52;56.83;100382.81;3969762;29;20020;-73
2023/08/25 09:05:07;;;;;;;;;;;;;;;25.57;56.54;100389.44;3969550;29;20029;-72
2023/08/25 09:07:09;;;;;;;;;;;;;;;25.59;56.46;100381.66;3970440;29;20037;-72
2023/08/25 09:09:12;;;;;;;;;;;;;;;25.60;56.38;100384.16;3969504;29;19937;-73
2023/08/25 09:11:14;;;;;;;;;;;;;;;25.62;56.35;100384.66;3971760;29;20024;-73
2023/08/25 09:13:16;;;;;;;;;;;;;;;25.64;56.69;100388.00;3970004;29;20016;-71
2023/08/25 09:15:23;;;;;;;;;;;;;;;25.66;56.48;100379.41;3970603;29;20019;-72
2023/08/25 09:17:25;;;;;;;;;;;;;;;25.69;56.26;100378.81;3969641;29;19996;-71
2023/08/25 09:19:29;;;;;;;;;;;;;;;25.70;56.16;100384.06;3974975;29;20020;-72
2023/08/25 09:21:32;;;;;;;;;;;;;;;25.72;56.51;100384.63;3969515;29;20023;-72
2023/08/25 09:23:34;;;;;;;;;;;;;;;25.74;56.33;100389.88;3969380;29;20093;-72
2023/08/25 09:25:38;;;;;;;;;;;;;;;25.76;56.27;100398.69;3969572;29;19961;-72
2023/08/25 09:27:40;;;;;;;;;;;;;;;25.80;56.15;100399.78;3969915;29;20525;-71
2023/08/25 09:29:43;;;;;;;;;;;;;;;25.83;56.04;100406.66;3972620;29;20373;-71
2023/08/25 09:31:45;;;;;;;;;;;;;;;25.86;56.05;100408.84;3969570;29;20024;-71
2023/08/25 09:33:46;;;;;;;;;;;;;;;25.87;56.00;100405.78;3970316;29;20028;-70
2023/08/25 09:35:48;;;;;;;;;;;;;;;25.90;55.93;100394.16;3968518;29;20020;-72
2023/08/25 09:37:52;;;;;;;;;;;;;;;25.93;55.81;100400.25;3969317;29;20059;-72
2023/08/25 09:39:54;;;;;;;;;;;;;;;25.95;55.75;100404.34;3968888;29;20029;-71
2023/08/25 09:41:56;;;;;;;;;;;;;;;25.96;55.49;100406.03;3968398;29;20041;-71
2023/08/25 09:43:58;;;;;;;;;;;;;;;25.97;55.33;100404.94;3967931;29;20016;-72
2023/08/25 09:46:00;;;;;;;;;;;;;;;26.00;55.37;100409.06;3968761;29;20025;-74
2023/08/25 09:48:08;;;;;;;;;;;;;;;26.03;55.29;100405.72;3968680;29;20020;-72
2023/08/25 09:50:13;;;;;;;;;;;;;;;26.05;55.63;100417.31;3968586;29;19935;-71
2023/08/25 09:52:15;;;;;;;;;;;;;;;26.07;55.21;100415.09;3968951;29;20024;-71
2023/08/25 09:54:18;;;;;;;;;;;;;;;26.09;55.15;100412.88;3968882;29;20020;-70
2023/08/25 09:56:20;;;;;;;;;;;;;;;26.11;55.06;100415.34;3968839;29;20004;-71
2023/08/25 09:58:22;;;;;;;;;;;;;;;26.12;55.09;100423.34;3968420;29;20488;-71
2023/08/25 10:00:24;;;;;;;;;;;;;;;26.14;55.42;100417.53;3965761;29;20064;-70
2023/08/25 10:02:26;;;;;;;;;;;;;;;26.16;54.97;100420.81;3968431;29;20032;-71
2023/08/25 10:04:28;;;;;;;;;;;;;;;26.17;55.31;100417.78;3968772;29;20024;-71
2023/08/25 10:06:32;;;;;;;;;;;;;;;26.18;54.93;100424.97;3968333;29;20012;-71
2023/08/25 10:08:34;;;;;;;;;;;;;;;26.19;55.21;100428.56;3957862;29;20391;-71
2023/08/25 10:10:38;;;;;;;;;;;;;;;26.21;55.14;100429.91;3968228;29;19968;-73
2023/08/25 10:12:41;;;;;;;;;;;;;;;26.22;55.10;100426.06;3968414;29;20472;-71
2023/08/25 10:14:43;;;;;;;;;;;;;;;26.23;54.73;100422.16;3967696;29;20031;-71
2023/08/25 10:16:46;;;;;;;;;;;;;;;26.24;54.69;100425.75;3968724;29;20566;-71
2023/08/25 10:18:47;;;;;;;;;;;;;;;26.24;55.10;100420.22;3966829;29;20024;-71
2023/08/25 10:20:50;;;;;;;;;;;;;;;26.25;54.75;100419.09;3968060;29;20021;-71
2023/08/25 10:22:51;;;;;;;;;;;;;;;26.27;55.10;100422.41;3967850;29;20038;-71
2023/08/25 10:25:00;;;;;;;;;;;;;;;26.24;55.09;100421.03;3968055;29;20013;-71
2023/08/25 10:27:03;;;;;;;;;;;;;;;26.28;54.83;100424.03;3967739;29;20036;-72
2023/08/25 10:29:06;;;;;;;;;;;;;;;26.29;55.29;100427.66;3968175;29;20032;-71
2023/08/25 10:31:08;;;;;;;;;;;;;;;26.30;55.36;100426.53;3967523;29;20385;-72